createdAt,value
2017-10-02T00:02:22.862Z,54.20
2017-10-02T00:04:49.946Z,54.20
2017-10-02T00:07:16.310Z,54.40
2017-10-02T00:09:42.633Z,54.20
2017-10-02T00:12:09.730Z,54.50
2017-10-02T00:14:36.774Z,54.10
2017-10-02T00:17:03.830Z,53.20
2017-10-02T00:19:30.176Z,53.30
2017-10-02T00:21:56.519Z,53.80
2017-10-02T00:24:22.880Z,53.30
2017-10-02T00:26:49.200Z,53.60
2017-10-02T00:29:15.602Z,54.20
2017-10-02T00:31:42.753Z,53.90
2017-10-02T00:34:09.103Z,53.90
2017-10-02T00:36:35.438Z,53.80
2017-10-02T00:39:01.942Z,53.70
2017-10-02T00:41:28.280Z,54.10
2017-10-02T00:43:54.610Z,53.40
2017-10-02T00:46:21.229Z,54.20
2017-10-02T00:48:47.629Z,54.00
2017-10-02T00:51:14.029Z,54.30
2017-10-02T00:53:40.372Z,54.00
2017-10-02T00:56:06.727Z,54.10
2017-10-02T00:58:33.101Z,54.10
2017-10-02T01:00:59.440Z,53.70
2017-10-02T01:03:25.772Z,53.80
2017-10-02T01:05:52.105Z,54.80
2017-10-02T01:08:18.437Z,54.10
2017-10-02T01:10:45.498Z,54.10
2017-10-02T01:13:12.619Z,54.20
2017-10-02T01:15:39.021Z,53.80
2017-10-02T01:18:05.397Z,53.10
2017-10-02T01:20:32.446Z,54.20
2017-10-02T01:22:58.767Z,54.10
2017-10-02T01:25:25.121Z,54.40
2017-10-02T01:27:51.431Z,53.30
2017-10-02T01:30:17.762Z,53.50
2017-10-02T01:32:44.126Z,53.90
2017-10-02T01:35:11.185Z,52.60
2017-10-02T01:37:37.636Z,52.60
2017-10-02T01:40:05.582Z,53.10
2017-10-02T01:42:32.886Z,53.80
2017-10-02T01:44:59.942Z,53.40
2017-10-02T01:47:26.356Z,53.40
2017-10-02T01:49:52.671Z,53.60
2017-10-02T01:52:19.001Z,53.00
2017-10-02T01:54:46.102Z,53.50
2017-10-02T01:57:12.410Z,53.50
2017-10-02T01:59:39.461Z,53.70
2017-10-02T02:02:05.887Z,53.60
2017-10-02T02:04:32.226Z,53.40
2017-10-02T02:06:58.519Z,53.40
2017-10-02T02:09:24.878Z,53.40
2017-10-02T02:11:51.386Z,54.50
2017-10-02T02:14:17.725Z,54.80
2017-10-02T02:16:44.768Z,54.70
2017-10-02T02:19:11.121Z,54.70
2017-10-02T02:21:37.577Z,55.00
2017-10-02T02:24:03.901Z,55.70
2017-10-02T02:26:30.245Z,57.20
2017-10-02T02:28:56.565Z,56.80
2017-10-02T02:31:22.891Z,57.10
2017-10-02T02:33:49.261Z,56.20
2017-10-02T02:36:16.345Z,56.80
2017-10-02T02:38:43.407Z,57.40
2017-10-02T02:41:09.573Z,57.50
2017-10-02T02:43:35.793Z,57.10
2017-10-02T02:46:01.941Z,58.10
2017-10-02T02:48:28.254Z,58.00
2017-10-02T02:50:54.632Z,58.60
2017-10-02T02:53:21.246Z,58.60
2017-10-02T02:55:47.389Z,59.70
2017-10-02T02:58:14.623Z,59.90
2017-10-02T03:00:40.751Z,60.00
2017-10-02T03:03:06.949Z,59.90
2017-10-02T03:05:33.093Z,59.70
2017-10-02T03:07:59.245Z,59.30
2017-10-02T03:10:25.395Z,58.90
2017-10-02T03:12:51.570Z,59.30
2017-10-02T03:15:18.539Z,59.40
2017-10-02T03:17:45.406Z,58.90
2017-10-02T03:20:12.290Z,59.00
2017-10-02T03:22:38.426Z,59.00
2017-10-02T03:25:04.568Z,58.70
2017-10-02T03:27:30.681Z,59.00
2017-10-02T03:29:56.806Z,58.60
2017-10-02T03:32:22.938Z,58.30
2017-10-02T03:34:50.061Z,58.40
2017-10-02T03:37:16.211Z,58.40
2017-10-02T03:39:42.337Z,58.40
2017-10-02T03:42:08.546Z,59.20
2017-10-02T03:44:34.681Z,59.40
2017-10-02T03:47:00.843Z,60.00
2017-10-02T03:49:26.983Z,59.70
2017-10-02T03:51:53.405Z,59.80
2017-10-02T03:54:19.553Z,60.30
2017-10-02T03:56:45.865Z,60.80
2017-10-02T03:59:12.936Z,60.50
2017-10-02T04:01:39.813Z,60.60
2017-10-02T04:04:06.709Z,60.90
2017-10-02T04:06:32.881Z,61.00
2017-10-02T04:08:59.039Z,60.60
2017-10-02T04:11:25.940Z,61.00
2017-10-02T04:13:52.834Z,61.10
2017-10-02T04:16:18.985Z,61.10
2017-10-02T04:18:45.134Z,61.30
2017-10-02T04:21:11.258Z,61.50
2017-10-02T04:23:38.150Z,62.00
2017-10-02T04:26:05.131Z,62.00
2017-10-02T04:28:32.029Z,62.60
2017-10-02T04:30:58.201Z,62.60
2017-10-02T04:33:24.317Z,62.70
2017-10-02T04:35:50.469Z,63.60
2017-10-02T04:38:17.378Z,63.50
2017-10-02T04:40:43.505Z,63.40
2017-10-02T04:43:09.686Z,63.60
2017-10-02T04:45:35.831Z,63.90
2017-10-02T04:48:01.957Z,63.90
2017-10-02T04:50:28.241Z,64.70
2017-10-02T04:52:54.356Z,64.40
2017-10-02T04:55:20.507Z,64.80
2017-10-02T04:57:46.651Z,63.90
2017-10-02T05:00:13.099Z,64.10
2017-10-02T05:02:39.218Z,64.20
2017-10-02T05:05:06.094Z,64.60
2017-10-02T05:07:32.969Z,64.70
2017-10-02T05:09:59.544Z,64.70
2017-10-02T05:12:25.656Z,64.90
2017-10-02T05:14:51.793Z,64.90
2017-10-02T05:17:17.924Z,66.00
2017-10-02T05:19:44.066Z,65.10
2017-10-02T05:22:10.190Z,65.30
2017-10-02T05:24:39.213Z,65.60
2017-10-02T05:27:05.380Z,65.60
2017-10-02T05:29:32.231Z,65.90
2017-10-02T05:31:59.355Z,65.50
2017-10-02T05:34:25.537Z,65.40
2017-10-02T05:36:51.679Z,65.80
2017-10-02T05:39:17.784Z,65.50
2017-10-02T05:41:43.905Z,65.70
2017-10-02T05:44:10.518Z,65.90
2017-10-02T05:46:37.393Z,66.50
2017-10-02T05:49:04.265Z,66.40
2017-10-02T05:51:30.417Z,66.40
2017-10-02T05:53:56.536Z,66.60
2017-10-02T05:56:22.686Z,67.10
2017-10-02T05:58:48.825Z,66.90
2017-10-02T06:01:14.956Z,67.20
2017-10-02T06:03:41.069Z,66.90
2017-10-02T06:06:07.934Z,67.20
2017-10-02T06:08:34.786Z,67.00
2017-10-02T06:11:00.891Z,67.00
2017-10-02T06:13:27.017Z,67.50
2017-10-02T06:15:54.267Z,67.30
2017-10-02T06:18:20.469Z,66.90
2017-10-02T06:20:46.619Z,66.80
2017-10-02T06:23:13.492Z,67.00
2017-10-02T06:25:39.700Z,67.00
2017-10-02T06:28:06.606Z,66.90
2017-10-02T06:30:32.757Z,66.90
2017-10-02T06:32:58.941Z,67.20
2017-10-02T06:35:30.867Z,67.10
2017-10-02T06:37:57.061Z,66.60
2017-10-02T06:40:23.222Z,66.70
2017-10-02T06:42:49.370Z,66.80
2017-10-02T06:45:15.598Z,66.90
2017-10-02T06:47:42.471Z,66.20
2017-10-02T06:50:08.905Z,66.20
2017-10-02T06:52:35.797Z,66.90
2017-10-02T06:55:01.966Z,66.80
2017-10-02T06:57:28.340Z,66.60
2017-10-02T06:59:54.596Z,66.80
2017-10-02T07:02:20.758Z,67.00
2017-10-02T07:04:47.108Z,66.70
2017-10-02T07:07:13.275Z,66.90
2017-10-02T07:09:39.441Z,67.20
2017-10-02T07:12:05.567Z,66.90
2017-10-02T07:14:31.746Z,67.00
2017-10-02T07:16:58.829Z,66.90
2017-10-02T07:19:25.792Z,66.90
2017-10-02T07:21:52.675Z,67.50
2017-10-02T07:24:19.579Z,67.30
2017-10-02T07:26:46.185Z,67.40
2017-10-02T07:29:12.317Z,68.40
2017-10-02T07:31:38.444Z,68.90
2017-10-02T07:34:04.635Z,69.10
2017-10-02T07:36:33.755Z,69.20
2017-10-02T07:38:59.914Z,69.00
2017-10-02T07:41:26.034Z,68.90
2017-10-02T07:43:52.161Z,69.80
2017-10-02T07:46:21.565Z,68.40
2017-10-02T07:48:47.902Z,68.30
2017-10-02T07:51:14.794Z,68.50
2017-10-02T07:53:41.786Z,68.70
2017-10-02T07:56:08.664Z,68.10
2017-10-02T07:58:34.863Z,68.10
2017-10-02T08:01:01.042Z,67.70
2017-10-02T08:03:28.152Z,68.20
2017-10-02T08:05:55.027Z,68.30
2017-10-02T08:08:21.790Z,68.20
2017-10-02T08:10:48.200Z,68.90
2017-10-02T08:13:14.396Z,69.10
2017-10-02T08:15:40.554Z,68.50
2017-10-02T08:18:06.689Z,67.90
2017-10-02T08:20:33.628Z,68.60
2017-10-02T08:22:59.790Z,68.60
2017-10-02T08:25:25.993Z,68.50
2017-10-02T08:27:53.885Z,67.90
2017-10-02T08:30:20.066Z,67.50
2017-10-02T08:32:46.216Z,67.80
2017-10-02T08:35:12.391Z,67.90
2017-10-02T08:37:38.564Z,68.20
2017-10-02T08:40:04.723Z,67.70
2017-10-02T08:42:31.677Z,67.60
2017-10-02T08:44:57.822Z,67.60
2017-10-02T08:47:24.147Z,67.50
2017-10-02T08:49:50.329Z,67.00
2017-10-02T08:52:16.451Z,66.90
2017-10-02T08:54:43.322Z,66.70
2017-10-02T08:57:10.222Z,67.20
2017-10-02T08:59:36.502Z,67.20
2017-10-02T09:02:02.872Z,67.60
2017-10-02T09:04:29.766Z,67.70
2017-10-02T09:07:00.619Z,67.50
2017-10-02T09:09:26.756Z,67.20
2017-10-02T09:11:53.064Z,67.20
2017-10-02T09:14:19.198Z,66.80
2017-10-02T09:16:45.317Z,66.80
2017-10-02T09:19:11.425Z,67.10
2017-10-02T09:21:37.570Z,67.50
2017-10-02T09:24:03.707Z,66.90
2017-10-02T09:26:29.861Z,66.60
2017-10-02T09:28:57.461Z,66.60
2017-10-02T09:31:24.340Z,65.60
2017-10-02T09:33:51.130Z,65.60
2017-10-02T09:36:17.273Z,66.20
2017-10-02T09:38:43.422Z,66.40
2017-10-02T09:41:09.552Z,66.40
2017-10-02T09:43:35.701Z,66.50
2017-10-02T09:46:06.558Z,66.90
2017-10-02T09:48:32.750Z,66.80
2017-10-02T09:50:58.914Z,66.40
2017-10-02T09:53:25.082Z,65.80
2017-10-02T09:55:51.204Z,66.00
2017-10-02T09:58:18.102Z,66.20
2017-10-02T10:00:44.977Z,65.40
2017-10-02T10:03:15.062Z,65.40
2017-10-02T10:05:41.993Z,64.90
2017-10-02T10:08:08.192Z,64.80
2017-10-02T10:10:34.353Z,64.90
2017-10-02T10:13:00.546Z,65.40
2017-10-02T10:15:26.721Z,64.50
2017-10-02T10:17:52.877Z,63.90
2017-10-02T10:20:19.055Z,64.00
2017-10-02T10:25:16.483Z,63.00
2017-10-02T10:27:42.633Z,63.50
2017-10-02T10:30:10.136Z,62.30
2017-10-02T10:32:36.289Z,62.60
2017-10-02T10:35:02.423Z,62.70
2017-10-02T10:37:29.349Z,61.90
2017-10-02T10:40:00.950Z,62.20
2017-10-02T10:42:27.116Z,62.40
2017-10-02T10:44:53.315Z,61.60
2017-10-02T10:47:19.504Z,61.70
2017-10-02T10:49:45.647Z,62.10
2017-10-02T10:52:11.902Z,62.40
2017-10-02T10:54:38.046Z,61.40
2017-10-02T10:57:04.934Z,62.10
2017-10-02T10:59:37.071Z,61.90
2017-10-02T11:02:03.940Z,61.50
2017-10-02T11:04:30.926Z,61.30
2017-10-02T11:06:57.082Z,61.30
2017-10-02T11:09:23.229Z,61.30
2017-10-02T11:11:49.407Z,61.40
2017-10-02T11:14:15.537Z,60.90
2017-10-02T11:16:44.915Z,60.40
2017-10-02T11:19:11.069Z,59.40
2017-10-02T11:21:38.018Z,58.80
2017-10-02T11:24:04.145Z,58.80
2017-10-02T11:26:30.261Z,58.70
2017-10-02T11:28:56.408Z,58.40
2017-10-02T11:31:22.605Z,59.40
2017-10-02T11:33:48.725Z,57.10
2017-10-02T11:36:20.570Z,57.60
2017-10-02T11:38:46.729Z,57.20
2017-10-02T11:41:12.856Z,56.80
2017-10-02T11:43:39.805Z,58.70
2017-10-02T11:46:05.983Z,58.80
2017-10-02T11:48:32.277Z,57.80
2017-10-02T11:51:00.248Z,56.20
2017-10-02T11:53:27.336Z,55.40
2017-10-02T11:55:53.723Z,55.50
2017-10-02T11:58:20.046Z,54.80
2017-10-02T12:00:46.465Z,54.90
2017-10-02T12:03:13.551Z,55.20
2017-10-02T12:05:40.641Z,55.90
2017-10-02T12:08:10.380Z,55.60
2017-10-02T12:10:36.730Z,54.50
2017-10-02T12:13:03.119Z,54.40
2017-10-02T12:15:29.453Z,54.10
2017-10-02T12:17:55.930Z,53.50
2017-10-02T12:20:22.611Z,54.10
2017-10-02T12:22:49.727Z,52.10
2017-10-02T12:25:16.786Z,51.50
2017-10-02T12:27:45.978Z,51.40
2017-10-02T12:30:12.384Z,51.30
2017-10-02T12:32:38.742Z,51.30
2017-10-02T12:35:05.073Z,51.20
2017-10-02T12:37:31.511Z,51.20
2017-10-02T12:39:58.665Z,52.70
2017-10-02T12:42:28.891Z,52.70
2017-10-02T12:44:55.226Z,52.90
2017-10-02T12:47:21.629Z,53.00
2017-10-02T12:49:48.742Z,52.40
2017-10-02T12:52:15.830Z,51.90
2017-10-02T12:54:42.271Z,52.30
2017-10-02T12:57:13.794Z,51.40
2017-10-02T12:59:40.117Z,51.70
2017-10-02T13:02:07.223Z,53.90
2017-10-02T13:04:33.388Z,54.00
2017-10-02T13:06:59.520Z,53.60
2017-10-02T13:09:25.878Z,52.20
2017-10-02T13:11:52.274Z,51.90
2017-10-02T13:14:23.308Z,51.30
2017-10-02T13:16:50.416Z,50.50
2017-10-02T13:19:16.709Z,50.70
2017-10-02T13:21:43.038Z,50.70
2017-10-02T13:24:09.347Z,52.10
2017-10-02T13:26:36.393Z,49.30
2017-10-02T13:29:02.779Z,49.30
2017-10-02T13:31:29.249Z,48.20
2017-10-02T13:33:55.611Z,47.10
2017-10-02T13:36:22.194Z,46.70
2017-10-02T13:38:48.571Z,47.00
2017-10-02T13:41:14.922Z,47.00
2017-10-02T13:43:42.004Z,47.10
2017-10-02T13:46:08.333Z,47.10
2017-10-02T13:48:34.627Z,47.50
2017-10-02T13:51:01.790Z,49.10
2017-10-02T13:53:28.325Z,49.00
2017-10-02T13:55:54.494Z,47.50
2017-10-02T13:58:20.847Z,48.20
2017-10-02T14:00:47.194Z,48.50
2017-10-02T14:03:13.510Z,48.30
2017-10-02T14:05:39.905Z,47.80
2017-10-02T14:08:06.273Z,47.80
2017-10-02T14:10:33.182Z,48.20
2017-10-02T14:12:59.481Z,48.20
2017-10-02T14:15:25.619Z,49.40
2017-10-02T14:17:52.505Z,49.00
2017-10-02T14:20:18.649Z,49.00
2017-10-02T14:22:44.782Z,48.60
2017-10-02T14:25:10.950Z,47.60
2017-10-02T14:27:37.114Z,46.70
2017-10-02T14:30:03.460Z,46.70
2017-10-02T14:32:29.810Z,47.00
2017-10-02T14:34:56.187Z,47.50
2017-10-02T14:37:22.699Z,47.30
2017-10-02T14:39:48.988Z,45.90
2017-10-02T14:42:15.330Z,46.40
2017-10-02T14:44:41.651Z,46.20
2017-10-02T14:47:08.013Z,46.00
2017-10-02T14:49:34.402Z,45.60
2017-10-02T14:52:00.718Z,44.10
2017-10-02T14:54:27.094Z,44.80
2017-10-02T14:56:54.595Z,44.10
2017-10-02T14:59:20.748Z,45.50
2017-10-02T15:01:56.449Z,44.60
2017-10-02T15:04:23.571Z,45.20
2017-10-02T15:06:49.757Z,45.20
2017-10-02T15:09:15.907Z,44.20
2017-10-02T15:11:42.037Z,45.20
2017-10-02T15:14:08.261Z,44.90
2017-10-02T15:16:34.471Z,44.60
2017-10-02T15:19:01.350Z,43.90
2017-10-02T15:21:28.260Z,45.10
2017-10-02T15:23:54.605Z,45.10
2017-10-02T15:26:20.800Z,45.00
2017-10-02T15:28:47.748Z,44.50
2017-10-02T15:31:15.053Z,44.40
2017-10-02T15:33:42.084Z,45.10
2017-10-02T15:36:13.931Z,44.90
2017-10-02T15:38:40.095Z,44.30
2017-10-02T15:41:07.009Z,45.40
2017-10-02T15:43:33.339Z,45.30
2017-10-02T15:45:59.757Z,46.10
2017-10-02T15:48:26.633Z,45.60
2017-10-02T15:50:53.499Z,45.00
2017-10-02T15:53:19.625Z,45.20
2017-10-02T15:55:45.792Z,44.60
2017-10-02T15:58:11.915Z,44.80
2017-10-02T16:00:38.059Z,45.10
2017-10-02T16:03:04.209Z,46.30
2017-10-02T16:05:30.350Z,45.50
2017-10-02T16:07:56.477Z,46.20
2017-10-02T16:10:23.436Z,45.80
2017-10-02T16:12:50.342Z,46.00
2017-10-02T16:15:17.290Z,45.50
2017-10-02T16:17:43.666Z,45.40
2017-10-02T16:20:09.858Z,46.70
2017-10-02T16:22:36.005Z,46.60
2017-10-02T16:25:02.178Z,46.10
2017-10-02T16:27:28.321Z,45.80
2017-10-02T16:29:54.440Z,45.80
2017-10-02T16:32:21.011Z,45.50
2017-10-02T16:34:47.157Z,46.50
2017-10-02T16:37:13.311Z,45.80
2017-10-02T16:39:39.509Z,46.70
2017-10-02T16:42:06.678Z,46.90
2017-10-02T16:44:33.033Z,46.90
2017-10-02T16:46:59.917Z,46.90
2017-10-02T16:49:26.049Z,46.90
2017-10-02T16:51:52.921Z,46.60
2017-10-02T16:54:19.873Z,46.80
2017-10-02T16:56:46.760Z,46.60
2017-10-02T16:59:13.660Z,46.80
2017-10-02T17:01:40.533Z,47.10
2017-10-02T17:04:06.642Z,47.10
2017-10-02T17:06:32.778Z,46.30
2017-10-02T17:09:04.769Z,47.60
2017-10-02T17:11:31.001Z,47.60
2017-10-02T17:13:57.157Z,46.90
2017-10-02T17:16:23.519Z,47.40
2017-10-02T17:18:49.653Z,47.50
2017-10-02T17:21:15.860Z,48.20
2017-10-02T17:23:42.045Z,47.20
2017-10-02T17:26:08.788Z,49.70
2017-10-02T17:28:35.683Z,47.90
2017-10-02T17:31:02.545Z,48.00
2017-10-02T17:33:28.722Z,48.00
2017-10-02T17:35:54.936Z,47.80
2017-10-02T17:38:21.184Z,48.20
2017-10-02T17:40:48.532Z,48.00
2017-10-02T17:43:14.662Z,48.00
2017-10-02T17:45:44.077Z,48.60
2017-10-02T17:48:10.933Z,49.20
2017-10-02T17:50:37.897Z,49.30
2017-10-02T17:53:04.762Z,49.20
2017-10-02T17:55:31.636Z,48.70
2017-10-02T17:57:58.496Z,49.00
2017-10-02T18:00:24.665Z,49.00
2017-10-02T18:02:50.801Z,48.80
2017-10-02T18:05:17.771Z,48.80
2017-10-02T18:07:44.672Z,48.90
2017-10-02T18:10:10.905Z,48.80
2017-10-02T18:12:37.189Z,49.10
2017-10-02T18:15:03.377Z,49.80
2017-10-02T18:17:30.278Z,50.20
2017-10-02T18:19:56.498Z,49.70
2017-10-02T18:22:23.588Z,49.70
2017-10-02T18:24:49.721Z,49.70
2017-10-02T18:27:16.827Z,49.60
2017-10-02T18:29:43.009Z,49.70
2017-10-02T18:32:09.194Z,49.40
2017-10-02T18:34:35.335Z,49.70
2017-10-02T18:37:02.474Z,49.80
2017-10-02T18:39:28.714Z,49.60
2017-10-02T18:41:54.993Z,50.10
2017-10-02T18:44:21.213Z,50.40
2017-10-02T18:46:47.360Z,50.10
2017-10-02T18:49:13.573Z,51.20
2017-10-02T18:51:39.716Z,50.60
2017-10-02T18:54:05.866Z,51.10
2017-10-02T18:56:32.335Z,50.60
2017-10-02T18:58:58.490Z,50.50
2017-10-02T19:01:24.638Z,51.40
2017-10-02T19:03:51.016Z,50.80
2017-10-02T19:06:19.080Z,50.60
2017-10-02T19:08:45.373Z,50.90
2017-10-02T19:11:11.752Z,50.90
2017-10-02T19:13:37.901Z,51.20
2017-10-02T19:16:05.873Z,51.10
2017-10-02T19:18:32.068Z,51.10
2017-10-02T19:20:58.202Z,51.30
2017-10-02T19:23:24.375Z,51.90
2017-10-02T19:25:50.554Z,51.70
2017-10-02T19:28:17.468Z,51.80
2017-10-02T19:30:43.666Z,51.80
2017-10-02T19:33:10.543Z,53.80
2017-10-02T19:35:36.694Z,53.70
2017-10-02T19:38:03.553Z,53.70
2017-10-02T19:40:30.522Z,53.30
2017-10-02T19:42:56.667Z,53.30
2017-10-02T19:45:22.931Z,53.00
2017-10-02T19:47:49.109Z,53.20
2017-10-02T19:50:15.231Z,53.50
2017-10-02T19:52:42.134Z,53.90
2017-10-02T19:58:03.933Z,54.30
2017-10-02T20:00:30.220Z,53.90
2017-10-02T20:02:56.346Z,54.90
2017-10-02T20:05:22.772Z,55.00
2017-10-02T20:07:49.107Z,54.70
2017-10-02T20:10:15.270Z,54.40
2017-10-02T20:12:41.428Z,54.80
2017-10-02T20:15:07.605Z,54.10
2017-10-02T20:17:33.756Z,54.40
2017-10-02T20:19:59.880Z,54.60
2017-10-02T20:22:26.085Z,55.00
2017-10-02T20:24:52.430Z,55.60
2017-10-02T20:27:18.681Z,55.90
2017-10-02T20:29:44.833Z,56.20
2017-10-02T20:32:10.979Z,56.30
2017-10-02T20:34:38.053Z,56.30
2017-10-02T20:37:04.186Z,56.20
2017-10-02T20:39:31.068Z,55.60
2017-10-02T20:41:57.221Z,55.60
2017-10-02T20:44:23.476Z,55.50
2017-10-02T20:46:49.588Z,55.40
2017-10-02T20:49:16.458Z,55.10
2017-10-02T20:51:43.298Z,55.40
2017-10-02T20:54:09.412Z,55.40
2017-10-02T20:56:35.525Z,54.80
2017-10-02T20:59:01.825Z,54.60
2017-10-02T21:01:28.213Z,55.50
2017-10-02T21:03:55.298Z,56.30
2017-10-02T21:06:22.161Z,56.70
2017-10-02T21:08:49.042Z,55.50
2017-10-02T21:11:16.033Z,55.90
2017-10-02T21:13:42.155Z,55.90
2017-10-02T21:16:08.280Z,56.40
2017-10-02T21:18:34.619Z,57.00
2017-10-02T21:21:01.329Z,57.50
2017-10-02T21:23:27.484Z,58.00
2017-10-02T21:25:53.809Z,57.10
2017-10-02T21:28:20.218Z,57.60
2017-10-02T21:30:46.531Z,58.10
2017-10-02T21:33:12.707Z,58.60
2017-10-02T21:35:39.765Z,58.10
2017-10-02T21:38:06.685Z,58.70
2017-10-02T21:40:32.870Z,58.60
2017-10-02T21:42:59.177Z,58.40
2017-10-02T21:45:25.525Z,57.70
2017-10-02T21:47:51.937Z,58.70
2017-10-02T21:50:18.247Z,59.00
2017-10-02T21:52:44.544Z,59.00
2017-10-02T21:55:10.999Z,58.90
2017-10-02T21:57:37.425Z,58.60
2017-10-02T22:00:03.761Z,59.10
2017-10-02T22:02:30.849Z,59.00
2017-10-02T22:04:57.232Z,59.00
2017-10-02T22:07:25.037Z,59.00
2017-10-02T22:09:51.720Z,59.10
2017-10-02T22:12:18.067Z,60.30
2017-10-02T22:14:44.505Z,60.20
2017-10-02T22:17:10.830Z,60.20
2017-10-02T22:19:37.185Z,60.70
2017-10-02T22:22:03.593Z,60.80
2017-10-02T22:24:30.108Z,60.50
2017-10-02T22:26:56.483Z,60.70
2017-10-02T22:29:22.849Z,60.60
2017-10-02T22:31:49.388Z,60.30
2017-10-02T22:34:15.740Z,60.70
2017-10-02T22:36:42.074Z,60.90
2017-10-02T22:39:09.158Z,61.00
2017-10-02T22:41:35.526Z,61.00
2017-10-02T22:44:01.922Z,61.20
2017-10-02T22:46:28.261Z,61.40
2017-10-02T22:48:54.703Z,61.90
2017-10-02T22:51:21.077Z,62.70
2017-10-02T22:53:47.444Z,62.80
2017-10-02T22:56:13.832Z,63.00
2017-10-02T22:58:40.941Z,63.60
2017-10-02T23:01:08.029Z,63.60
2017-10-02T23:03:34.417Z,63.50
2017-10-02T23:06:00.861Z,63.10
2017-10-02T23:08:27.216Z,63.30
2017-10-02T23:10:54.326Z,63.10
2017-10-02T23:13:21.404Z,63.50
2017-10-02T23:15:48.202Z,63.40
2017-10-02T23:18:14.318Z,64.50
2017-10-02T23:20:40.735Z,64.00
2017-10-02T23:23:07.162Z,64.10
2017-10-02T23:25:33.519Z,63.80
2017-10-02T23:27:59.870Z,63.60
2017-10-02T23:30:26.306Z,63.20
2017-10-02T23:32:52.685Z,63.50
2017-10-02T23:35:19.053Z,63.50
2017-10-02T23:37:45.383Z,63.90
2017-10-02T23:40:11.746Z,64.20
2017-10-02T23:42:38.123Z,63.50
2017-10-02T23:45:04.459Z,63.90
2017-10-02T23:47:31.014Z,64.40
2017-10-02T23:49:57.629Z,64.60
2017-10-02T23:52:23.982Z,64.10
2017-10-02T23:54:50.296Z,63.70
2017-10-02T23:57:17.357Z,64.10
2017-10-02T23:59:45.119Z,64.00
